createdAt,value
2023-01-11T00:02:09.808Z,4.80
2023-01-11T00:07:12.485Z,4.90
2023-01-11T00:12:15.190Z,4.80
2023-01-11T00:17:17.562Z,5.00
2023-01-11T00:22:20.342Z,5.10
2023-01-11T00:27:22.593Z,5.10
2023-01-11T00:32:25.159Z,5.20
2023-01-11T00:37:27.388Z,5.20
2023-01-11T00:42:48.417Z,5.30
2023-01-11T00:48:04.916Z,5.30
2023-01-11T00:53:08.922Z,5.30
2023-01-11T00:58:11.150Z,5.30
2023-01-11T01:03:13.376Z,5.30
2023-01-11T01:08:15.966Z,5.20
2023-01-11T01:13:36.991Z,5.20
2023-01-11T01:18:39.282Z,5.20
2023-01-11T01:23:41.510Z,5.00
2023-01-11T01:28:43.759Z,4.90
2023-01-11T01:33:45.989Z,4.80
2023-01-11T01:38:48.311Z,4.60
2023-01-11T01:43:58.945Z,4.50
2023-01-11T01:49:11.986Z,4.40
2023-01-11T01:54:18.696Z,4.30
2023-01-11T01:59:22.642Z,4.20
2023-01-11T02:04:38.707Z,4.10
2023-01-11T02:09:57.133Z,4.10
2023-01-11T02:15:01.218Z,3.90
2023-01-11T02:20:17.498Z,3.80
2023-01-11T02:25:41.689Z,3.80
2023-01-11T02:31:08.945Z,3.70
2023-01-11T02:36:31.020Z,3.70
2023-01-11T02:42:04.790Z,3.60
2023-01-11T02:47:17.794Z,3.60
2023-01-11T02:52:55.441Z,3.50
2023-01-11T02:58:00.822Z,3.40
2023-01-11T03:03:10.674Z,3.30
2023-01-11T03:08:28.159Z,3.00
2023-01-11T03:13:39.658Z,2.80
2023-01-11T03:18:53.501Z,2.70
2023-01-11T03:24:02.000Z,2.80
2023-01-11T03:29:21.885Z,2.80
2023-01-11T03:34:51.548Z,2.50
2023-01-11T03:40:07.375Z,2.30
2023-01-11T03:45:10.280Z,2.10
2023-01-11T03:50:13.768Z,2.10
2023-01-11T03:55:16.956Z,2.00
2023-01-11T04:00:21.017Z,2.10
2023-01-11T04:05:23.374Z,2.20
2023-01-11T04:10:25.592Z,2.20
2023-01-11T04:15:30.792Z,2.20
2023-01-11T04:20:34.977Z,2.20
2023-01-11T04:25:37.531Z,2.10
2023-01-11T04:30:39.837Z,2.10
2023-01-11T04:35:42.327Z,2.10
2023-01-11T04:40:44.766Z,2.20
2023-01-11T04:45:47.102Z,2.30
2023-01-11T04:50:49.423Z,2.30
2023-01-11T04:55:53.573Z,2.30
2023-01-11T05:00:55.820Z,2.40
2023-01-11T05:06:00.025Z,2.40
2023-01-11T05:11:05.115Z,2.30
2023-01-11T05:16:10.120Z,2.30
2023-01-11T05:21:14.167Z,2.40
2023-01-11T05:26:24.315Z,2.40
2023-01-11T05:31:27.248Z,2.40
2023-01-11T05:36:29.813Z,2.40
2023-01-11T05:41:32.120Z,2.40
2023-01-11T05:46:36.506Z,2.40
2023-01-11T05:51:40.690Z,2.40
2023-01-11T05:56:43.069Z,2.50
2023-01-11T06:01:45.469Z,2.60
2023-01-11T06:06:47.840Z,2.60
2023-01-11T06:11:50.610Z,2.60
2023-01-11T06:16:53.554Z,2.70
2023-01-11T06:21:55.803Z,2.70
2023-01-11T06:26:58.058Z,2.70
2023-01-11T06:32:00.369Z,2.70
2023-01-11T06:37:02.709Z,2.80
2023-01-11T06:42:05.116Z,2.80
2023-01-11T06:47:07.368Z,2.60
2023-01-11T06:52:09.582Z,2.90
2023-01-11T06:57:12.084Z,2.90
2023-01-11T07:02:14.359Z,2.90
2023-01-11T07:07:16.785Z,2.90
2023-01-11T07:12:19.100Z,2.90
2023-01-11T07:17:21.950Z,3.00
2023-01-11T07:22:24.353Z,3.00
2023-01-11T07:27:26.658Z,3.00
2023-01-11T07:32:29.074Z,3.10
2023-01-11T07:37:32.768Z,3.20
2023-01-11T07:42:53.457Z,3.30
2023-01-11T07:47:55.681Z,3.30
2023-01-11T07:52:58.025Z,3.40
2023-01-11T07:58:00.373Z,3.50
2023-01-11T08:03:03.038Z,3.60
2023-01-11T08:08:06.337Z,3.60
2023-01-11T08:13:30.731Z,3.60
2023-01-11T08:18:33.388Z,3.70
2023-01-11T08:23:35.678Z,3.70
2023-01-11T08:28:37.908Z,3.80
2023-01-11T08:33:40.827Z,3.90
2023-01-11T08:38:44.040Z,3.90
2023-01-11T08:43:46.397Z,4.00
2023-01-11T08:48:48.799Z,4.20
2023-01-11T08:53:52.546Z,4.20
2023-01-11T08:58:54.871Z,4.40
2023-01-11T09:03:57.297Z,4.40
2023-01-11T09:08:59.515Z,4.50
2023-01-11T09:14:01.836Z,4.50
2023-01-11T09:19:04.281Z,4.60
2023-01-11T09:24:06.928Z,4.70
2023-01-11T09:29:10.309Z,4.80
2023-01-11T09:34:13.248Z,4.90
2023-01-11T09:39:18.789Z,5.00
2023-01-11T09:44:25.489Z,5.10
2023-01-11T09:49:31.392Z,5.20
2023-01-11T09:54:34.401Z,5.30
2023-01-11T10:00:00.969Z,5.40
2023-01-11T10:05:34.793Z,5.50
2023-01-11T10:18:32.233Z,5.80
2023-01-11T10:22:08.557Z,5.70
2023-01-11T10:27:30.886Z,5.80
2023-01-11T10:32:53.234Z,5.90
2023-01-11T10:38:22.119Z,6.00
2023-01-11T10:43:26.590Z,6.10
2023-01-11T10:48:37.745Z,6.20
2023-01-11T10:53:55.170Z,6.30
2023-01-11T10:59:07.492Z,6.40
2023-01-11T11:04:26.099Z,6.40
2023-01-11T11:09:38.050Z,6.50
2023-01-11T11:14:46.059Z,6.50
2023-01-11T11:19:48.456Z,6.50
2023-01-11T11:24:59.673Z,6.40
2023-01-11T11:30:02.060Z,6.40
2023-01-11T11:35:07.733Z,6.40
2023-01-11T11:40:37.813Z,6.40
2023-01-11T11:45:57.152Z,6.40
2023-01-11T11:51:03.276Z,6.40
2023-01-11T11:56:17.980Z,6.50
2023-01-11T12:01:36.584Z,6.60
2023-01-11T12:06:40.779Z,6.60
2023-01-11T12:11:48.604Z,6.60
2023-01-11T12:16:50.853Z,6.60
2023-01-11T12:21:53.374Z,6.60
2023-01-11T12:27:41.732Z,6.70
2023-01-11T12:33:02.976Z,6.70
2023-01-11T12:38:26.676Z,6.70
2023-01-11T12:43:49.369Z,6.60
2023-01-11T12:49:00.720Z,6.70
2023-01-11T12:54:05.928Z,6.70
2023-01-11T12:59:25.318Z,6.70
2023-01-11T13:04:42.375Z,6.70
2023-01-11T13:10:24.005Z,6.80
2023-01-11T13:15:53.969Z,6.80
2023-01-11T13:21:03.912Z,6.70
2023-01-11T13:26:23.479Z,6.70
2023-01-11T13:31:26.790Z,6.80
2023-01-11T13:36:39.934Z,6.80
2023-01-11T13:41:47.328Z,6.80
2023-01-11T13:47:20.808Z,6.80
2023-01-11T13:52:37.273Z,6.80
2023-01-11T13:58:05.718Z,6.80
2023-01-11T14:03:36.061Z,6.80
2023-01-11T14:09:00.505Z,6.70
2023-01-11T14:14:46.417Z,6.70
2023-01-11T14:20:01.868Z,6.70
2023-01-11T14:25:14.596Z,6.70
2023-01-11T14:30:25.486Z,6.70
2023-01-11T14:35:49.948Z,6.70
2023-01-11T14:41:19.988Z,6.70
2023-01-11T14:47:12.822Z,6.70
2023-01-11T14:52:34.440Z,6.70
2023-01-11T14:57:59.696Z,6.80
2023-01-11T15:03:01.905Z,6.80
2023-01-11T15:08:34.323Z,6.80
2023-01-11T15:13:45.948Z,6.80
2023-01-11T15:18:48.196Z,6.80
2023-01-11T15:23:54.913Z,6.70
2023-01-11T15:29:01.371Z,6.70
2023-01-11T15:34:27.205Z,6.70
2023-01-11T15:39:46.577Z,6.70
2023-01-11T15:45:18.939Z,6.70
2023-01-11T15:50:45.342Z,6.80
2023-01-11T15:56:21.231Z,6.80
2023-01-11T16:01:30.693Z,6.80
2023-01-11T16:07:03.114Z,6.80
2023-01-11T16:12:26.711Z,6.80
2023-01-11T16:17:29.631Z,6.80
2023-01-11T16:22:31.897Z,6.80
2023-01-11T16:27:35.210Z,6.70
2023-01-11T16:32:37.680Z,6.60
2023-01-11T16:37:45.153Z,6.80
2023-01-11T16:42:51.569Z,6.80
2023-01-11T16:48:13.796Z,6.80
2023-01-11T16:53:16.684Z,6.80
2023-01-11T16:58:29.803Z,6.80
2023-01-11T17:03:37.123Z,6.90
2023-01-11T17:08:45.147Z,6.90
2023-01-11T17:14:24.652Z,7.00
2023-01-11T17:19:29.915Z,7.00
2023-01-11T17:24:39.937Z,7.10
2023-01-11T17:29:44.611Z,7.10
2023-01-11T17:34:48.508Z,7.10
2023-01-11T17:39:54.815Z,7.00
2023-01-11T17:45:13.536Z,6.90
2023-01-11T17:50:39.439Z,6.80
2023-01-11T17:55:55.955Z,6.70
2023-01-11T18:01:14.824Z,6.60
2023-01-11T18:06:39.968Z,6.50
2023-01-11T18:11:42.758Z,6.50
2023-01-11T18:17:05.559Z,6.50
2023-01-11T18:22:29.637Z,6.30
2023-01-11T18:27:34.298Z,6.20
2023-01-11T18:32:41.613Z,6.20
2023-01-11T18:37:43.894Z,6.10
2023-01-11T18:42:48.453Z,6.10
2023-01-11T18:47:51.051Z,6.00
2023-01-11T18:52:53.409Z,6.10
2023-01-11T18:57:57.503Z,6.00
2023-01-11T19:03:01.066Z,6.00
2023-01-11T19:08:03.352Z,6.00
2023-01-11T19:13:05.594Z,6.10
2023-01-11T19:18:07.850Z,6.10
2023-01-11T19:23:10.099Z,6.10
2023-01-11T19:28:12.319Z,6.10
2023-01-11T19:33:14.629Z,6.10
2023-01-11T19:38:18.492Z,6.20
2023-01-11T19:43:20.750Z,6.20
2023-01-11T19:48:23.699Z,6.20
2023-01-11T19:53:25.964Z,6.20
2023-01-11T19:58:28.206Z,6.30
2023-01-11T20:03:30.430Z,6.30
2023-01-11T20:08:36.052Z,6.30
2023-01-11T20:13:39.283Z,6.40
2023-01-11T20:18:42.777Z,6.40
2023-01-11T20:23:45.093Z,6.40
2023-01-11T20:28:54.453Z,6.40
2023-01-11T20:33:57.379Z,6.50
2023-01-11T20:38:59.732Z,6.50
2023-01-11T20:44:02.151Z,6.50
2023-01-11T20:49:06.580Z,6.50
2023-01-11T20:54:09.026Z,6.50
2023-01-11T20:59:13.564Z,6.60
2023-01-11T21:04:17.953Z,6.60
2023-01-11T21:09:20.183Z,6.50
2023-01-11T21:14:23.319Z,6.70
2023-01-11T21:19:25.749Z,6.70
2023-01-11T21:24:28.140Z,6.70
2023-01-11T21:29:30.458Z,6.80
2023-01-11T21:34:32.737Z,6.80
2023-01-11T21:39:35.054Z,6.80
2023-01-11T21:44:37.310Z,6.80
2023-01-11T21:49:39.868Z,6.80
2023-01-11T21:54:42.113Z,6.90
2023-01-11T21:59:44.330Z,6.90
2023-01-11T22:04:46.641Z,6.90
2023-01-11T22:10:03.706Z,6.90
2023-01-11T22:15:07.359Z,7.00
2023-01-11T22:20:10.654Z,7.00
2023-01-11T22:25:12.924Z,7.00
2023-01-11T22:30:15.439Z,7.00
2023-01-11T22:35:17.735Z,7.00
2023-01-11T22:40:19.987Z,7.10
2023-01-11T22:45:22.241Z,7.10
2023-01-11T22:50:24.936Z,7.10
2023-01-11T22:55:27.185Z,7.20
2023-01-11T23:00:29.476Z,7.20
2023-01-11T23:05:31.738Z,7.20
2023-01-11T23:10:33.991Z,7.30
2023-01-11T23:15:39.626Z,7.30
2023-01-11T23:20:41.931Z,7.30
2023-01-11T23:25:44.183Z,7.30
2023-01-11T23:30:46.408Z,7.30
2023-01-11T23:35:56.414Z,7.40
2023-01-11T23:41:24.422Z,7.40
2023-01-11T23:46:45.187Z,7.40
2023-01-11T23:51:48.084Z,7.40
2023-01-11T23:56:50.295Z,7.50
